Rio Bonito, Brazil
Current Conditions -  °F | °C
As of 9:00 AM on Monday 20 Oct 2014 (Local Time) from SBES Reporting Station
Few Clouds Few Clouds  
Wind Chill: 91°   Ceiling: Unl
Heat Index: 92°   Visibility: 6mi
Dew Point: 63°   Wind: 9mph
Humidity: 38%   Direction: 360°N
Pressure: 29.88"   Gusts: NA
Location:  22.71°S, 42.61°W
Report Text: SBES 201200Z 36008KT 9999 FEW040 33/17 Q1012
Loading
Personal Weather Stations






























Interactive Weather Map
Tropical Storm Tracking
New forecast layout! Learn more

10-Day Weather Forecast

Advertisements
Track Severe Weather on mobile